sensor_id;sensor_type;location;lat;lon;timestamp;P1;durP1;ratioP1;P2;durP2;ratioP2
36191;SDS011;22233;42.708;23.360;2024-03-17T00:00:20;14.88;;;11.00;;
36191;SDS011;22233;42.708;23.360;2024-03-17T00:02:45;16.65;;;11.93;;
36191;SDS011;22233;42.708;23.360;2024-03-17T00:05:12;17.05;;;12.70;;
36191;SDS011;22233;42.708;23.360;2024-03-17T00:07:38;14.13;;;11.68;;
36191;SDS011;22233;42.708;23.360;2024-03-17T00:10:03;14.95;;;11.95;;
36191;SDS011;22233;42.708;23.360;2024-03-17T00:12:29;16.83;;;12.40;;
36191;SDS011;22233;42.708;23.360;2024-03-17T00:14:55;14.98;;;11.90;;
36191;SDS011;22233;42.708;23.360;2024-03-17T00:17:20;16.20;;;11.73;;
36191;SDS011;22233;42.708;23.360;2024-03-17T00:19:46;18.92;;;12.43;;
36191;SDS011;22233;42.708;23.360;2024-03-17T00:22:12;15.80;;;11.43;;
36191;SDS011;22233;42.708;23.360;2024-03-17T00:24:39;17.10;;;12.38;;
36191;SDS011;22233;42.708;23.360;2024-03-17T00:27:05;14.57;;;11.50;;
36191;SDS011;22233;42.708;23.360;2024-03-17T00:29:31;18.08;;;12.13;;
36191;SDS011;22233;42.708;23.360;2024-03-17T00:31:57;15.60;;;12.45;;
36191;SDS011;22233;42.708;23.360;2024-03-17T00:34:22;17.75;;;11.98;;
36191;SDS011;22233;42.708;23.360;2024-03-17T00:36:48;14.80;;;12.27;;
36191;SDS011;22233;42.708;23.360;2024-03-17T00:39:13;19.17;;;12.70;;
36191;SDS011;22233;42.708;23.360;2024-03-17T00:41:41;14.85;;;12.00;;
36191;SDS011;22233;42.708;23.360;2024-03-17T00:44:07;15.40;;;12.02;;
36191;SDS011;22233;42.708;23.360;2024-03-17T00:46:32;14.23;;;12.07;;
36191;SDS011;22233;42.708;23.360;2024-03-17T00:48:58;14.40;;;11.55;;
36191;SDS011;22233;42.708;23.360;2024-03-17T00:51:25;19.58;;;14.00;;
36191;SDS011;22233;42.708;23.360;2024-03-17T00:53:51;21.00;;;13.13;;
36191;SDS011;22233;42.708;23.360;2024-03-17T00:56:16;19.05;;;12.85;;
36191;SDS011;22233;42.708;23.360;2024-03-17T00:58:41;18.42;;;12.98;;
36191;SDS011;22233;42.708;23.360;2024-03-17T01:01:07;19.75;;;14.32;;
36191;SDS011;22233;42.708;23.360;2024-03-17T01:03:33;24.95;;;16.63;;
36191;SDS011;22233;42.708;23.360;2024-03-17T01:05:58;22.75;;;16.60;;
36191;SDS011;22233;42.708;23.360;2024-03-17T01:08:24;24.25;;;18.23;;
36191;SDS011;22233;42.708;23.360;2024-03-17T01:10:49;32.05;;;22.05;;
36191;SDS011;22233;42.708;23.360;2024-03-17T01:13:16;35.17;;;23.48;;
36191;SDS011;22233;42.708;23.360;2024-03-17T01:15:42;25.50;;;19.10;;
36191;SDS011;22233;42.708;23.360;2024-03-17T01:18:07;30.95;;;22.48;;
36191;SDS011;22233;42.708;23.360;2024-03-17T01:20:36;26.00;;;19.98;;
36191;SDS011;22233;42.708;23.360;2024-03-17T01:23:05;28.35;;;21.10;;
36191;SDS011;22233;42.708;23.360;2024-03-17T01:25:31;25.08;;;18.63;;
36191;SDS011;22233;42.708;23.360;2024-03-17T01:28:01;29.65;;;22.58;;
36191;SDS011;22233;42.708;23.360;2024-03-17T01:30:26;33.65;;;22.83;;
36191;SDS011;22233;42.708;23.360;2024-03-17T01:32:52;31.50;;;21.90;;
36191;SDS011;22233;42.708;23.360;2024-03-17T01:35:17;29.75;;;22.27;;
36191;SDS011;22233;42.708;23.360;2024-03-17T01:37:43;28.90;;;21.02;;
36191;SDS011;22233;42.708;23.360;2024-03-17T01:40:08;27.73;;;20.15;;
36191;SDS011;22233;42.708;23.360;2024-03-17T01:42:38;26.52;;;19.30;;
36191;SDS011;22233;42.708;23.360;2024-03-17T01:45:18;27.65;;;19.83;;
36191;SDS011;22233;42.708;23.360;2024-03-17T01:47:52;26.33;;;18.27;;
36191;SDS011;22233;42.708;23.360;2024-03-17T01:50:18;27.77;;;18.67;;
36191;SDS011;22233;42.708;23.360;2024-03-17T01:52:49;24.80;;;18.48;;
36191;SDS011;22233;42.708;23.360;2024-03-17T01:55:17;20.17;;;16.85;;
36191;SDS011;22233;42.708;23.360;2024-03-17T01:57:42;22.95;;;17.45;;
36191;SDS011;22233;42.708;23.360;2024-03-17T02:00:08;21.30;;;16.58;;
36191;SDS011;22233;42.708;23.360;2024-03-17T02:02:34;23.08;;;17.05;;
36191;SDS011;22233;42.708;23.360;2024-03-17T02:05:00;20.52;;;17.02;;
36191;SDS011;22233;42.708;23.360;2024-03-17T02:07:27;23.67;;;16.63;;
36191;SDS011;22233;42.708;23.360;2024-03-17T02:09:53;24.13;;;17.48;;
36191;SDS011;22233;42.708;23.360;2024-03-17T02:12:18;21.75;;;17.48;;
36191;SDS011;22233;42.708;23.360;2024-03-17T02:14:43;20.63;;;16.77;;
36191;SDS011;22233;42.708;23.360;2024-03-17T02:17:09;22.83;;;17.23;;
36191;SDS011;22233;42.708;23.360;2024-03-17T02:19:34;21.02;;;17.92;;
36191;SDS011;22233;42.708;23.360;2024-03-17T02:22:00;20.17;;;17.00;;
36191;SDS011;22233;42.708;23.360;2024-03-17T02:24:25;22.33;;;17.65;;
36191;SDS011;22233;42.708;23.360;2024-03-17T02:26:51;24.77;;;17.40;;
36191;SDS011;22233;42.708;23.360;2024-03-17T02:29:16;21.38;;;16.95;;
36191;SDS011;22233;42.708;23.360;2024-03-17T02:31:42;21.98;;;15.98;;
36191;SDS011;22233;42.708;23.360;2024-03-17T02:34:07;22.48;;;16.98;;
36191;SDS011;22233;42.708;23.360;2024-03-17T02:36:32;21.30;;;17.05;;
36191;SDS011;22233;42.708;23.360;2024-03-17T02:38:58;24.95;;;17.60;;
36191;SDS011;22233;42.708;23.360;2024-03-17T02:41:42;21.33;;;17.60;;
36191;SDS011;22233;42.708;23.360;2024-03-17T02:44:08;22.23;;;16.48;;
36191;SDS011;22233;42.708;23.360;2024-03-17T02:46:33;19.17;;;15.70;;
36191;SDS011;22233;42.708;23.360;2024-03-17T02:48:59;18.98;;;15.43;;
36191;SDS011;22233;42.708;23.360;2024-03-17T02:51:25;18.80;;;14.85;;
36191;SDS011;22233;42.708;23.360;2024-03-17T02:53:51;22.02;;;15.30;;
36191;SDS011;22233;42.708;23.360;2024-03-17T02:56:16;22.40;;;15.65;;
36191;SDS011;22233;42.708;23.360;2024-03-17T02:58:43;19.73;;;15.10;;
36191;SDS011;22233;42.708;23.360;2024-03-17T03:01:11;24.08;;;16.95;;
36191;SDS011;22233;42.708;23.360;2024-03-17T03:03:36;23.10;;;16.38;;
36191;SDS011;22233;42.708;23.360;2024-03-17T03:06:02;24.90;;;16.17;;
36191;SDS011;22233;42.708;23.360;2024-03-17T03:08:32;22.08;;;16.98;;
36191;SDS011;22233;42.708;23.360;2024-03-17T03:10:57;22.92;;;16.92;;
36191;SDS011;22233;42.708;23.360;2024-03-17T03:13:22;23.73;;;17.95;;
36191;SDS011;22233;42.708;23.360;2024-03-17T03:15:48;24.92;;;17.70;;
36191;SDS011;22233;42.708;23.360;2024-03-17T03:18:14;23.15;;;16.88;;
36191;SDS011;22233;42.708;23.360;2024-03-17T03:20:40;23.88;;;18.45;;
36191;SDS011;22233;42.708;23.360;2024-03-17T03:23:06;25.63;;;16.90;;
36191;SDS011;22233;42.708;23.360;2024-03-17T03:25:31;25.90;;;18.27;;
36191;SDS011;22233;42.708;23.360;2024-03-17T03:27:57;25.83;;;19.73;;
36191;SDS011;22233;42.708;23.360;2024-03-17T03:30:23;27.75;;;19.98;;
36191;SDS011;22233;42.708;23.360;2024-03-17T03:32:48;28.00;;;19.77;;
36191;SDS011;22233;42.708;23.360;2024-03-17T03:35:14;29.42;;;20.73;;
36191;SDS011;22233;42.708;23.360;2024-03-17T03:37:40;28.60;;;20.25;;
36191;SDS011;22233;42.708;23.360;2024-03-17T03:40:06;24.00;;;18.30;;
36191;SDS011;22233;42.708;23.360;2024-03-17T03:42:44;21.58;;;18.10;;
36191;SDS011;22233;42.708;23.360;2024-03-17T03:45:10;21.85;;;18.10;;
36191;SDS011;22233;42.708;23.360;2024-03-17T03:47:42;20.15;;;17.10;;
36191;SDS011;22233;42.708;23.360;2024-03-17T03:50:08;22.42;;;16.95;;
36191;SDS011;22233;42.708;23.360;2024-03-17T03:52:34;17.55;;;15.02;;
36191;SDS011;22233;42.708;23.360;2024-03-17T03:55:00;17.13;;;13.65;;
36191;SDS011;22233;42.708;23.360;2024-03-17T03:57:26;18.60;;;12.85;;
36191;SDS011;22233;42.708;23.360;2024-03-17T03:59:54;18.27;;;15.43;;
36191;SDS011;22233;42.708;23.360;2024-03-17T04:02:20;21.98;;;15.25;;
36191;SDS011;22233;42.708;23.360;2024-03-17T04:04:46;19.55;;;15.02;;
36191;SDS011;22233;42.708;23.360;2024-03-17T04:07:12;17.17;;;15.25;;
36191;SDS011;22233;42.708;23.360;2024-03-17T04:09:38;19.40;;;14.32;;
36191;SDS011;22233;42.708;23.360;2024-03-17T04:12:03;19.80;;;14.35;;
36191;SDS011;22233;42.708;23.360;2024-03-17T04:14:29;16.10;;;13.85;;
36191;SDS011;22233;42.708;23.360;2024-03-17T04:16:55;19.70;;;14.20;;
36191;SDS011;22233;42.708;23.360;2024-03-17T04:19:21;21.23;;;15.18;;
36191;SDS011;22233;42.708;23.360;2024-03-17T04:21:46;17.90;;;14.30;;
36191;SDS011;22233;42.708;23.360;2024-03-17T04:24:12;15.75;;;13.70;;
36191;SDS011;22233;42.708;23.360;2024-03-17T04:26:37;18.88;;;15.32;;
36191;SDS011;22233;42.708;23.360;2024-03-17T04:29:03;19.45;;;14.80;;
36191;SDS011;22233;42.708;23.360;2024-03-17T04:31:30;22.17;;;15.25;;
36191;SDS011;22233;42.708;23.360;2024-03-17T04:33:56;22.52;;;15.98;;
36191;SDS011;22233;42.708;23.360;2024-03-17T04:36:21;18.17;;;14.13;;
36191;SDS011;22233;42.708;23.360;2024-03-17T04:38:47;19.67;;;14.13;;
36191;SDS011;22233;42.708;23.360;2024-03-17T04:41:15;19.67;;;14.60;;
36191;SDS011;22233;42.708;23.360;2024-03-17T04:43:41;20.33;;;14.93;;
36191;SDS011;22233;42.708;23.360;2024-03-17T04:46:07;18.50;;;14.68;;
36191;SDS011;22233;42.708;23.360;2024-03-17T04:48:36;20.83;;;16.10;;
36191;SDS011;22233;42.708;23.360;2024-03-17T04:51:02;18.05;;;15.02;;
36191;SDS011;22233;42.708;23.360;2024-03-17T04:53:28;22.73;;;17.70;;
36191;SDS011;22233;42.708;23.360;2024-03-17T04:56:12;26.80;;;19.20;;
36191;SDS011;22233;42.708;23.360;2024-03-17T04:58:37;25.05;;;19.40;;
36191;SDS011;22233;42.708;23.360;2024-03-17T05:01:08;20.25;;;15.43;;
36191;SDS011;22233;42.708;23.360;2024-03-17T05:03:34;23.45;;;17.00;;
36191;SDS011;22233;42.708;23.360;2024-03-17T05:06:00;21.88;;;17.58;;
36191;SDS011;22233;42.708;23.360;2024-03-17T05:08:27;24.80;;;18.77;;
36191;SDS011;22233;42.708;23.360;2024-03-17T05:11:03;21.33;;;17.90;;
36191;SDS011;22233;42.708;23.360;2024-03-17T05:13:30;27.33;;;19.42;;
36191;SDS011;22233;42.708;23.360;2024-03-17T05:15:56;24.88;;;19.40;;
36191;SDS011;22233;42.708;23.360;2024-03-17T05:18:22;28.17;;;18.17;;
36191;SDS011;22233;42.708;23.360;2024-03-17T05:20:57;24.27;;;19.13;;
36191;SDS011;22233;42.708;23.360;2024-03-17T05:23:29;23.17;;;18.10;;
36191;SDS011;22233;42.708;23.360;2024-03-17T05:25:56;22.67;;;17.52;;
36191;SDS011;22233;42.708;23.360;2024-03-17T05:28:23;21.17;;;15.23;;
36191;SDS011;22233;42.708;23.360;2024-03-17T05:30:49;18.02;;;14.63;;
36191;SDS011;22233;42.708;23.360;2024-03-17T05:33:18;21.23;;;16.27;;
36191;SDS011;22233;42.708;23.360;2024-03-17T05:35:51;21.47;;;14.07;;
36191;SDS011;22233;42.708;23.360;2024-03-17T05:38:20;17.73;;;14.10;;
36191;SDS011;22233;42.708;23.360;2024-03-17T05:41:00;19.30;;;13.98;;
36191;SDS011;22233;42.708;23.360;2024-03-17T05:43:30;27.15;;;15.23;;
36191;SDS011;22233;42.708;23.360;2024-03-17T05:46:03;29.23;;;16.05;;
36191;SDS011;22233;42.708;23.360;2024-03-17T05:48:33;34.88;;;16.92;;
36191;SDS011;22233;42.708;23.360;2024-03-17T05:51:00;28.67;;;17.33;;
36191;SDS011;22233;42.708;23.360;2024-03-17T05:53:27;30.88;;;17.55;;
36191;SDS011;22233;42.708;23.360;2024-03-17T05:55:53;33.50;;;17.10;;
36191;SDS011;22233;42.708;23.360;2024-03-17T05:58:18;24.15;;;15.35;;
36191;SDS011;22233;42.708;23.360;2024-03-17T06:00:43;26.50;;;14.48;;
36191;SDS011;22233;42.708;23.360;2024-03-17T06:03:09;23.88;;;13.38;;
36191;SDS011;22233;42.708;23.360;2024-03-17T06:05:36;18.33;;;12.93;;
36191;SDS011;22233;42.708;23.360;2024-03-17T06:08:04;20.25;;;13.27;;
36191;SDS011;22233;42.708;23.360;2024-03-17T06:10:31;13.23;;;11.00;;
36191;SDS011;22233;42.708;23.360;2024-03-17T06:12:58;16.17;;;11.00;;
36191;SDS011;22233;42.708;23.360;2024-03-17T06:15:24;13.57;;;11.10;;
36191;SDS011;22233;42.708;23.360;2024-03-17T06:17:50;16.77;;;11.63;;
36191;SDS011;22233;42.708;23.360;2024-03-17T06:20:22;14.75;;;11.48;;
36191;SDS011;22233;42.708;23.360;2024-03-17T06:22:49;16.52;;;11.27;;
36191;SDS011;22233;42.708;23.360;2024-03-17T06:25:15;17.23;;;10.95;;
36191;SDS011;22233;42.708;23.360;2024-03-17T06:27:41;17.85;;;11.70;;
36191;SDS011;22233;42.708;23.360;2024-03-17T06:30:10;15.45;;;11.38;;
36191;SDS011;22233;42.708;23.360;2024-03-17T06:32:39;15.52;;;10.98;;
36191;SDS011;22233;42.708;23.360;2024-03-17T06:35:08;16.42;;;11.85;;
36191;SDS011;22233;42.708;23.360;2024-03-17T06:37:34;19.02;;;13.38;;
36191;SDS011;22233;42.708;23.360;2024-03-17T06:40:00;17.30;;;12.60;;
36191;SDS011;22233;42.708;23.360;2024-03-17T06:42:26;15.27;;;12.10;;
36191;SDS011;22233;42.708;23.360;2024-03-17T06:44:51;16.52;;;12.63;;
36191;SDS011;22233;42.708;23.360;2024-03-17T06:47:17;18.00;;;12.80;;
36191;SDS011;22233;42.708;23.360;2024-03-17T06:49:42;29.05;;;14.18;;
36191;SDS011;22233;42.708;23.360;2024-03-17T06:52:09;16.10;;;13.10;;
36191;SDS011;22233;42.708;23.360;2024-03-17T06:54:34;16.67;;;12.27;;
36191;SDS011;22233;42.708;23.360;2024-03-17T06:57:00;15.95;;;13.35;;
36191;SDS011;22233;42.708;23.360;2024-03-17T06:59:26;18.48;;;14.82;;
36191;SDS011;22233;42.708;23.360;2024-03-17T07:01:51;19.02;;;13.18;;
36191;SDS011;22233;42.708;23.360;2024-03-17T07:04:16;19.02;;;13.43;;
36191;SDS011;22233;42.708;23.360;2024-03-17T07:06:42;17.40;;;13.48;;
36191;SDS011;22233;42.708;23.360;2024-03-17T07:09:07;17.83;;;13.20;;
36191;SDS011;22233;42.708;23.360;2024-03-17T07:11:34;17.73;;;13.73;;
36191;SDS011;22233;42.708;23.360;2024-03-17T07:13:59;18.02;;;14.52;;
36191;SDS011;22233;42.708;23.360;2024-03-17T07:16:25;22.23;;;13.77;;
36191;SDS011;22233;42.708;23.360;2024-03-17T07:18:50;18.02;;;13.07;;
36191;SDS011;22233;42.708;23.360;2024-03-17T07:21:17;14.67;;;11.03;;
36191;SDS011;22233;42.708;23.360;2024-03-17T07:23:43;16.48;;;11.65;;
36191;SDS011;22233;42.708;23.360;2024-03-17T07:26:08;16.02;;;10.93;;
36191;SDS011;22233;42.708;23.360;2024-03-17T07:28:34;14.07;;;10.98;;
36191;SDS011;22233;42.708;23.360;2024-03-17T07:31:00;16.38;;;11.65;;
36191;SDS011;22233;42.708;23.360;2024-03-17T07:33:25;18.30;;;13.02;;
36191;SDS011;22233;42.708;23.360;2024-03-17T07:35:55;16.08;;;12.13;;
36191;SDS011;22233;42.708;23.360;2024-03-17T07:38:22;15.50;;;12.18;;
36191;SDS011;22233;42.708;23.360;2024-03-17T07:41:01;20.08;;;12.25;;
36191;SDS011;22233;42.708;23.360;2024-03-17T07:43:31;15.02;;;11.50;;
36191;SDS011;22233;42.708;23.360;2024-03-17T07:48:26;16.77;;;12.82;;
36191;SDS011;22233;42.708;23.360;2024-03-17T07:50:58;15.15;;;11.98;;
36191;SDS011;22233;42.708;23.360;2024-03-17T07:53:29;13.70;;;10.65;;
36191;SDS011;22233;42.708;23.360;2024-03-17T07:58:24;16.95;;;11.68;;
36191;SDS011;22233;42.708;23.360;2024-03-17T08:00:51;15.65;;;10.80;;
36191;SDS011;22233;42.708;23.360;2024-03-17T08:03:18;13.95;;;11.50;;
36191;SDS011;22233;42.708;23.360;2024-03-17T08:05:47;12.75;;;10.70;;
36191;SDS011;22233;42.708;23.360;2024-03-17T08:08:14;14.55;;;9.98;;
36191;SDS011;22233;42.708;23.360;2024-03-17T08:10:39;22.98;;;12.98;;
36191;SDS011;22233;42.708;23.360;2024-03-17T08:13:05;13.95;;;11.07;;
36191;SDS011;22233;42.708;23.360;2024-03-17T08:15:30;17.80;;;10.55;;
36191;SDS011;22233;42.708;23.360;2024-03-17T08:17:55;14.55;;;9.95;;
36191;SDS011;22233;42.708;23.360;2024-03-17T08:20:21;13.50;;;10.40;;
36191;SDS011;22233;42.708;23.360;2024-03-17T08:22:46;13.65;;;9.95;;
36191;SDS011;22233;42.708;23.360;2024-03-17T08:25:11;14.30;;;10.77;;
36191;SDS011;22233;42.708;23.360;2024-03-17T08:27:37;13.65;;;9.23;;
36191;SDS011;22233;42.708;23.360;2024-03-17T08:30:02;13.25;;;9.82;;
36191;SDS011;22233;42.708;23.360;2024-03-17T08:32:28;14.55;;;11.40;;
36191;SDS011;22233;42.708;23.360;2024-03-17T08:34:54;14.27;;;11.50;;
36191;SDS011;22233;42.708;23.360;2024-03-17T08:37:20;14.27;;;11.80;;
36191;SDS011;22233;42.708;23.360;2024-03-17T08:39:46;16.58;;;11.75;;
36191;SDS011;22233;42.708;23.360;2024-03-17T08:42:12;20.58;;;14.15;;
36191;SDS011;22233;42.708;23.360;2024-03-17T08:44:37;16.08;;;12.85;;
36191;SDS011;22233;42.708;23.360;2024-03-17T08:47:03;14.88;;;12.57;;
36191;SDS011;22233;42.708;23.360;2024-03-17T08:49:29;14.27;;;11.27;;
36191;SDS011;22233;42.708;23.360;2024-03-17T08:51:54;13.85;;;11.18;;
36191;SDS011;22233;42.708;23.360;2024-03-17T08:54:19;14.07;;;11.57;;
36191;SDS011;22233;42.708;23.360;2024-03-17T08:56:45;9.82;;;8.68;;
36191;SDS011;22233;42.708;23.360;2024-03-17T08:59:10;14.10;;;10.13;;
36191;SDS011;22233;42.708;23.360;2024-03-17T09:01:37;14.13;;;9.20;;
36191;SDS011;22233;42.708;23.360;2024-03-17T09:04:02;11.13;;;8.05;;
36191;SDS011;22233;42.708;23.360;2024-03-17T09:06:28;11.52;;;7.28;;
36191;SDS011;22233;42.708;23.360;2024-03-17T09:08:55;9.87;;;7.60;;
36191;SDS011;22233;42.708;23.360;2024-03-17T09:11:20;10.25;;;7.82;;
36191;SDS011;22233;42.708;23.360;2024-03-17T09:13:50;9.60;;;7.93;;
36191;SDS011;22233;42.708;23.360;2024-03-17T09:16:15;12.98;;;8.63;;
36191;SDS011;22233;42.708;23.360;2024-03-17T09:18:43;11.07;;;9.05;;
36191;SDS011;22233;42.708;23.360;2024-03-17T09:21:09;12.20;;;8.73;;
36191;SDS011;22233;42.708;23.360;2024-03-17T09:23:35;10.20;;;8.80;;
36191;SDS011;22233;42.708;23.360;2024-03-17T09:26:05;10.30;;;8.82;;
36191;SDS011;22233;42.708;23.360;2024-03-17T09:28:36;10.10;;;8.50;;
36191;SDS011;22233;42.708;23.360;2024-03-17T09:31:02;10.02;;;7.97;;
36191;SDS011;22233;42.708;23.360;2024-03-17T09:33:30;10.45;;;8.00;;
36191;SDS011;22233;42.708;23.360;2024-03-17T09:36:02;13.82;;;8.90;;
36191;SDS011;22233;42.708;23.360;2024-03-17T09:38:30;11.52;;;8.15;;
36191;SDS011;22233;42.708;23.360;2024-03-17T09:40:57;11.63;;;8.35;;
36191;SDS011;22233;42.708;23.360;2024-03-17T09:43:23;11.30;;;8.57;;
36191;SDS011;22233;42.708;23.360;2024-03-17T09:45:50;9.48;;;7.53;;
36191;SDS011;22233;42.708;23.360;2024-03-17T09:48:20;10.75;;;7.35;;
36191;SDS011;22233;42.708;23.360;2024-03-17T09:50:55;10.98;;;7.93;;
36191;SDS011;22233;42.708;23.360;2024-03-17T09:53:25;14.77;;;8.50;;
36191;SDS011;22233;42.708;23.360;2024-03-17T09:55:52;9.00;;;7.18;;
36191;SDS011;22233;42.708;23.360;2024-03-17T09:58:21;9.73;;;6.95;;
36191;SDS011;22233;42.708;23.360;2024-03-17T10:00:47;7.15;;;6.40;;
36191;SDS011;22233;42.708;23.360;2024-03-17T10:03:38;7.22;;;5.65;;
36191;SDS011;22233;42.708;23.360;2024-03-17T10:06:05;8.82;;;6.15;;
36191;SDS011;22233;42.708;23.360;2024-03-17T10:08:31;6.35;;;5.70;;
36191;SDS011;22233;42.708;23.360;2024-03-17T10:10:59;7.95;;;6.60;;
36191;SDS011;22233;42.708;23.360;2024-03-17T10:13:24;6.13;;;5.53;;
36191;SDS011;22233;42.708;23.360;2024-03-17T10:15:50;8.50;;;5.82;;
36191;SDS011;22233;42.708;23.360;2024-03-17T10:18:21;6.63;;;5.18;;
36191;SDS011;22233;42.708;23.360;2024-03-17T10:20:48;7.25;;;6.00;;
36191;SDS011;22233;42.708;23.360;2024-03-17T10:23:21;8.55;;;6.10;;
36191;SDS011;22233;42.708;23.360;2024-03-17T10:25:47;10.38;;;7.25;;
36191;SDS011;22233;42.708;23.360;2024-03-17T10:28:13;8.93;;;6.70;;
36191;SDS011;22233;42.708;23.360;2024-03-17T10:30:40;7.38;;;5.47;;
36191;SDS011;22233;42.708;23.360;2024-03-17T10:33:19;6.38;;;5.45;;
36191;SDS011;22233;42.708;23.360;2024-03-17T10:35:47;6.13;;;5.22;;
36191;SDS011;22233;42.708;23.360;2024-03-17T10:38:13;5.50;;;4.38;;
36191;SDS011;22233;42.708;23.360;2024-03-17T10:40:39;5.07;;;4.20;;
36191;SDS011;22233;42.708;23.360;2024-03-17T10:43:06;3.42;;;3.13;;
36191;SDS011;22233;42.708;23.360;2024-03-17T10:45:33;4.18;;;3.15;;
36191;SDS011;22233;42.708;23.360;2024-03-17T10:48:03;5.07;;;3.22;;
36191;SDS011;22233;42.708;23.360;2024-03-17T10:50:36;3.63;;;2.92;;
36191;SDS011;22233;42.708;23.360;2024-03-17T10:53:03;3.65;;;3.25;;
36191;SDS011;22233;42.708;23.360;2024-03-17T10:55:41;5.47;;;3.40;;
36191;SDS011;22233;42.708;23.360;2024-03-17T10:58:12;3.75;;;3.13;;
36191;SDS011;22233;42.708;23.360;2024-03-17T11:00:40;4.18;;;3.17;;
36191;SDS011;22233;42.708;23.360;2024-03-17T11:03:08;3.65;;;2.95;;
36191;SDS011;22233;42.708;23.360;2024-03-17T11:05:36;5.53;;;3.38;;
36191;SDS011;22233;42.708;23.360;2024-03-17T11:08:02;6.78;;;3.35;;
36191;SDS011;22233;42.708;23.360;2024-03-17T11:10:29;5.25;;;4.22;;
36191;SDS011;22233;42.708;23.360;2024-03-17T11:12:58;6.63;;;4.45;;
36191;SDS011;22233;42.708;23.360;2024-03-17T11:17:51;6.90;;;4.85;;
36191;SDS011;22233;42.708;23.360;2024-03-17T11:20:24;7.13;;;4.78;;
36191;SDS011;22233;42.708;23.360;2024-03-17T11:22:51;6.35;;;5.13;;
36191;SDS011;22233;42.708;23.360;2024-03-17T11:27:51;6.00;;;4.88;;
36191;SDS011;22233;42.708;23.360;2024-03-17T11:41:46;5.25;;;4.47;;
36191;SDS011;22233;42.708;23.360;2024-03-17T11:46:52;4.70;;;3.25;;
36191;SDS011;22233;42.708;23.360;2024-03-17T11:49:20;6.40;;;3.33;;
36191;SDS011;22233;42.708;23.360;2024-03-17T11:51:48;4.03;;;3.30;;
36191;SDS011;22233;42.708;23.360;2024-03-17T11:54:15;4.28;;;3.88;;
36191;SDS011;22233;42.708;23.360;2024-03-17T11:56:44;4.70;;;3.88;;
36191;SDS011;22233;42.708;23.360;2024-03-17T11:59:13;4.68;;;3.78;;
36191;SDS011;22233;42.708;23.360;2024-03-17T12:01:39;5.18;;;3.67;;
36191;SDS011;22233;42.708;23.360;2024-03-17T12:04:05;6.45;;;4.03;;
36191;SDS011;22233;42.708;23.360;2024-03-17T12:12:08;4.18;;;3.67;;
36191;SDS011;22233;42.708;23.360;2024-03-17T12:14:33;4.78;;;3.75;;
36191;SDS011;22233;42.708;23.360;2024-03-17T12:17:00;4.57;;;3.30;;
36191;SDS011;22233;42.708;23.360;2024-03-17T12:21:54;5.15;;;3.88;;
36191;SDS011;22233;42.708;23.360;2024-03-17T12:24:21;4.85;;;4.05;;
36191;SDS011;22233;42.708;23.360;2024-03-17T12:26:48;4.88;;;4.18;;
36191;SDS011;22233;42.708;23.360;2024-03-17T12:29:35;4.23;;;3.80;;
36191;SDS011;22233;42.708;23.360;2024-03-17T12:32:06;4.68;;;4.10;;
36191;SDS011;22233;42.708;23.360;2024-03-17T12:34:36;6.38;;;4.32;;
36191;SDS011;22233;42.708;23.360;2024-03-17T12:37:02;5.05;;;4.30;;
36191;SDS011;22233;42.708;23.360;2024-03-17T12:39:32;5.65;;;4.07;;
36191;SDS011;22233;42.708;23.360;2024-03-17T12:42:32;4.82;;;3.95;;
36191;SDS011;22233;42.708;23.360;2024-03-17T12:44:56;6.03;;;4.95;;
36191;SDS011;22233;42.708;23.360;2024-03-17T12:47:23;5.45;;;4.88;;
36191;SDS011;22233;42.708;23.360;2024-03-17T12:49:51;7.40;;;4.72;;
36191;SDS011;22233;42.708;23.360;2024-03-17T12:52:18;7.32;;;5.25;;
36191;SDS011;22233;42.708;23.360;2024-03-17T12:55:06;6.28;;;4.50;;
36191;SDS011;22233;42.708;23.360;2024-03-17T12:57:51;6.28;;;4.97;;
36191;SDS011;22233;42.708;23.360;2024-03-17T13:03:42;8.70;;;5.80;;
36191;SDS011;22233;42.708;23.360;2024-03-17T13:06:09;5.15;;;4.47;;
36191;SDS011;22233;42.708;23.360;2024-03-17T13:08:35;4.80;;;4.30;;
36191;SDS011;22233;42.708;23.360;2024-03-17T13:11:01;6.85;;;5.18;;
36191;SDS011;22233;42.708;23.360;2024-03-17T13:13:30;5.45;;;4.95;;
36191;SDS011;22233;42.708;23.360;2024-03-17T13:15:56;6.13;;;5.03;;
36191;SDS011;22233;42.708;23.360;2024-03-17T13:18:21;6.07;;;5.47;;
36191;SDS011;22233;42.708;23.360;2024-03-17T13:20:47;6.85;;;6.05;;
36191;SDS011;22233;42.708;23.360;2024-03-17T13:23:19;6.78;;;5.20;;
36191;SDS011;22233;42.708;23.360;2024-03-17T13:25:46;7.35;;;5.65;;
36191;SDS011;22233;42.708;23.360;2024-03-17T13:28:13;7.57;;;6.03;;
36191;SDS011;22233;42.708;23.360;2024-03-17T13:30:38;8.20;;;5.57;;
36191;SDS011;22233;42.708;23.360;2024-03-17T13:33:04;6.00;;;5.20;;
36191;SDS011;22233;42.708;23.360;2024-03-17T13:35:34;6.60;;;6.00;;
36191;SDS011;22233;42.708;23.360;2024-03-17T13:38:03;7.30;;;5.85;;
36191;SDS011;22233;42.708;23.360;2024-03-17T13:40:28;7.40;;;5.57;;
36191;SDS011;22233;42.708;23.360;2024-03-17T13:42:54;8.77;;;6.35;;
36191;SDS011;22233;42.708;23.360;2024-03-17T13:45:22;6.10;;;5.40;;
36191;SDS011;22233;42.708;23.360;2024-03-17T13:50:26;9.25;;;6.60;;
36191;SDS011;22233;42.708;23.360;2024-03-17T13:52:51;7.70;;;6.35;;
36191;SDS011;22233;42.708;23.360;2024-03-17T13:55:18;7.03;;;5.68;;
36191;SDS011;22233;42.708;23.360;2024-03-17T13:57:55;8.18;;;6.57;;
36191;SDS011;22233;42.708;23.360;2024-03-17T14:00:22;10.55;;;5.70;;
36191;SDS011;22233;42.708;23.360;2024-03-17T14:02:49;9.00;;;5.97;;
36191;SDS011;22233;42.708;23.360;2024-03-17T14:05:17;7.07;;;6.38;;
36191;SDS011;22233;42.708;23.360;2024-03-17T14:07:43;8.10;;;6.50;;
36191;SDS011;22233;42.708;23.360;2024-03-17T14:10:10;8.80;;;7.00;;
36191;SDS011;22233;42.708;23.360;2024-03-17T14:12:36;7.47;;;6.25;;
36191;SDS011;22233;42.708;23.360;2024-03-17T14:15:05;6.97;;;5.68;;
36191;SDS011;22233;42.708;23.360;2024-03-17T14:17:32;10.27;;;6.20;;
36191;SDS011;22233;42.708;23.360;2024-03-17T14:19:58;7.07;;;6.30;;
36191;SDS011;22233;42.708;23.360;2024-03-17T14:22:24;10.05;;;6.70;;
36191;SDS011;22233;42.708;23.360;2024-03-17T14:24:50;7.88;;;6.80;;
36191;SDS011;22233;42.708;23.360;2024-03-17T14:27:15;8.45;;;6.78;;
36191;SDS011;22233;42.708;23.360;2024-03-17T14:29:41;7.15;;;6.30;;
36191;SDS011;22233;42.708;23.360;2024-03-17T14:32:10;8.57;;;6.72;;
36191;SDS011;22233;42.708;23.360;2024-03-17T14:34:35;8.73;;;7.50;;
36191;SDS011;22233;42.708;23.360;2024-03-17T14:37:02;7.65;;;6.72;;
36191;SDS011;22233;42.708;23.360;2024-03-17T14:39:28;7.07;;;6.38;;
36191;SDS011;22233;42.708;23.360;2024-03-17T14:41:54;7.35;;;6.63;;
36191;SDS011;22233;42.708;23.360;2024-03-17T14:44:20;8.45;;;6.35;;
36191;SDS011;22233;42.708;23.360;2024-03-17T14:46:46;7.72;;;6.50;;
36191;SDS011;22233;42.708;23.360;2024-03-17T14:49:12;7.78;;;6.55;;
36191;SDS011;22233;42.708;23.360;2024-03-17T14:51:37;9.02;;;6.60;;
36191;SDS011;22233;42.708;23.360;2024-03-17T14:54:03;10.20;;;6.72;;
36191;SDS011;22233;42.708;23.360;2024-03-17T14:56:30;9.02;;;6.57;;